Time;durP1;ratioP1;P1;durP2;ratioP2;P2;SDS_P1;SDS_P2;PMS_P1;PMS_P2;Temp;Humidity;BMP_temperature;BMP_pressure;BME280_temperature;BME280_humidity;BME280_pressure;Samples;Min_cycle;Max_cycle;Signal;HPM_P1;HPM_P2
2024/01/23 00:00:11;;;;;;;1999.90;999.90;;;;;;;;;;5096763;28;20188;-61
2024/01/23 00:02:38;;;;;;;1999.90;999.90;;;;;;;;;;5098764;28;20583;-63
2024/01/23 00:05:06;;;;;;;1999.90;999.90;;;;;;;;;;5080768;28;20218;-62
2024/01/23 00:07:34;;;;;;;1999.90;999.90;;;;;;;;;;5098871;28;20286;-70
2024/01/23 00:10:02;;;;;;;1999.90;999.90;;;;;;;;;;5099369;28;20224;-65
2024/01/23 00:12:30;;;;;;;1999.90;999.90;;;;;;;;;;5079987;28;20191;-69
2024/01/23 00:14:58;;;;;;;1999.90;999.90;;;;;;;;;;5098525;28;20279;-70
2024/01/23 00:17:26;;;;;;;1999.90;999.90;;;;;;;;;;5096985;28;20249;-68
2024/01/23 00:19:53;;;;;;;1999.90;999.90;;;;;;;;;;5097829;28;20188;-61
2024/01/23 00:22:20;;;;;;;1999.90;999.90;;;;;;;;;;5097899;28;20184;-63
2024/01/23 00:24:49;;;;;;;1999.90;999.90;;;;;;;;;;5098529;28;20219;-69
2024/01/23 00:27:16;;;;;;;1999.90;999.90;;;;;;;;;;5096353;28;20202;-62
2024/01/23 00:29:43;;;;;;;1999.90;999.90;;;;;;;;;;5097974;28;20195;-63
2024/01/23 00:32:11;;;;;;;1999.90;999.90;;;;;;;;;;5098345;28;20198;-66
2024/01/23 00:34:38;;;;;;;1999.90;999.90;;;;;;;;;;5097647;28;20165;-71
2024/01/23 00:37:06;;;;;;;1999.90;999.90;;;;;;;;;;5097745;28;20350;-66
2024/01/23 00:39:33;;;;;;;1999.90;999.90;;;;;;;;;;5096901;28;20191;-74
2024/01/23 00:42:02;;;;;;;1999.90;999.90;;;;;;;;;;5097018;28;20175;-61
2024/01/23 00:44:29;;;;;;;1999.90;999.90;;;;;;;;;;5097522;28;20227;-74
2024/01/23 00:46:57;;;;;;;1999.90;999.90;;;;;;;;;;5096102;28;20188;-62
2024/01/23 00:49:24;;;;;;;1999.90;999.90;;;;;;;;;;5096394;28;21078;-70
2024/01/23 00:51:51;;;;;;;1999.90;999.90;;;;;;;;;;5095971;28;20216;-77
2024/01/23 00:54:18;;;;;;;1999.90;999.90;;;;;;;;;;5096279;28;20207;-66
2024/01/23 00:56:46;;;;;;;1999.90;999.90;;;;;;;;;;5096820;28;20181;-69
2024/01/23 00:59:14;;;;;;;1999.90;999.90;;;;;;;;;;5096152;28;20200;-65
2024/01/23 01:01:42;;;;;;;1999.90;999.90;;;;;;;;;;5095841;28;20228;-64
2024/01/23 01:04:09;;;;;;;1999.90;999.90;;;;;;;;;;5077912;28;20250;-65
2024/01/23 01:06:36;;;;;;;1999.90;999.90;;;;;;;;;;5095941;28;20194;-67
2024/01/23 01:09:05;;;;;;;1999.90;999.90;;;;;;;;;;5095066;28;20210;-65
2024/01/23 01:11:32;;;;;;;1999.90;999.90;;;;;;;;;;5096256;28;20194;-67
2024/01/23 01:14:00;;;;;;;1999.90;999.90;;;;;;;;;;5094518;28;20205;-66
2024/01/23 01:16:29;;;;;;;1999.90;999.90;;;;;;;;;;5095677;28;20196;-65
2024/01/23 01:18:56;;;;;;;1999.90;999.90;;;;;;;;;;5096469;28;20188;-68
2024/01/23 01:21:24;;;;;;;1999.90;999.90;;;;;;;;;;5078952;28;20192;-61
2024/01/23 01:23:52;;;;;;;1999.90;999.90;;;;;;;;;;5095828;28;20263;-67
2024/01/23 01:26:19;;;;;;;1999.90;999.90;;;;;;;;;;5095233;28;20214;-62
2024/01/23 01:28:46;;;;;;;1999.90;999.90;;;;;;;;;;5093501;28;20191;-62
2024/01/23 01:31:14;;;;;;;1999.90;999.90;;;;;;;;;;5093653;28;20279;-74
2024/01/23 01:33:42;;;;;;;1999.90;999.90;;;;;;;;;;5091500;28;20181;-61
2024/01/23 01:36:10;;;;;;;1999.90;999.90;;;;;;;;;;5092451;28;20196;-83
2024/01/23 01:38:37;;;;;;;1999.90;999.90;;;;;;;;;;5060664;28;20175;-78
2024/01/23 01:41:05;;;;;;;1999.90;999.90;;;;;;;;;;5077329;28;20197;-61
2024/01/23 01:43:33;;;;;;;1999.90;999.90;;;;;;;;;;5095655;28;20194;-65
2024/01/23 01:46:11;;;;;;;1999.90;999.90;;;;;;;;;;5077533;28;20200;-75
2024/01/23 01:48:39;;;;;;;1999.90;999.90;;;;;;;;;;5094865;28;20202;-66
2024/01/23 01:51:07;;;;;;;1999.90;999.90;;;;;;;;;;5094971;28;20220;-66
2024/01/23 01:53:35;;;;;;;1999.90;999.90;;;;;;;;;;5077713;28;20192;-62
2024/01/23 01:56:03;;;;;;;1999.90;999.90;;;;;;;;;;5095166;28;20198;-68
2024/01/23 01:58:30;;;;;;;1999.90;999.90;;;;;;;;;;5095535;28;20260;-62
2024/01/23 02:00:57;;;;;;;1999.90;999.90;;;;;;;;;;5096575;28;20261;-77
2024/01/23 02:03:26;;;;;;;1999.90;999.90;;;;;;;;;;5095943;28;20183;-69
2024/01/23 02:05:54;;;;;;;1999.90;999.90;;;;;;;;;;5078344;28;20207;-69
2024/01/23 02:08:23;;;;;;;1999.90;999.90;;;;;;;;;;5095111;28;20218;-62
2024/01/23 02:10:51;;;;;;;1999.90;999.90;;;;;;;;;;5095483;28;20194;-72
2024/01/23 02:13:18;;;;;;;1999.90;999.90;;;;;;;;;;5078278;28;20179;-67
2024/01/23 02:15:46;;;;;;;1999.90;999.90;;;;;;;;;;5095135;28;20175;-62
2024/01/23 02:18:13;;;;;;;1999.90;999.90;;;;;;;;;;5095852;28;20281;-61
2024/01/23 02:20:40;;;;;;;1999.90;999.90;;;;;;;;;;5095799;28;20258;-65
2024/01/23 02:23:12;;;;;;;1999.90;999.90;;;;;;;;;;5094169;28;20242;-70
2024/01/23 02:25:41;;;;;;;1999.90;999.90;;;;;;;;;;5094553;28;20237;-62
2024/01/23 02:28:08;;;;;;;1999.90;999.90;;;;;;;;;;5094344;28;20204;-64
2024/01/23 02:30:35;;;;;;;1999.90;999.90;;;;;;;;;;5094453;28;20191;-64
2024/01/23 02:33:04;;;;;;;1999.90;999.90;;;;;;;;;;5077854;28;20289;-69
2024/01/23 02:35:31;;;;;;;1999.90;999.90;;;;;;;;;;5092593;28;20221;-61
2024/01/23 02:37:58;;;;;;;1999.90;999.90;;;;;;;;;;5090750;28;20187;-65
2024/01/23 02:40:26;;;;;;;1999.90;999.90;;;;;;;;;;5092690;28;20212;-61
2024/01/23 02:42:55;;;;;;;1999.90;999.90;;;;;;;;;;5094422;28;20216;-68
2024/01/23 02:45:22;;;;;;;1999.90;999.90;;;;;;;;;;5092679;28;20203;-64
2024/01/23 02:47:50;;;;;;;1999.90;999.90;;;;;;;;;;5094527;28;20194;-65
2024/01/23 02:50:17;;;;;;;1999.90;999.90;;;;;;;;;;5092687;28;20183;-65
2024/01/23 02:52:44;;;;;;;1999.90;999.90;;;;;;;;;;5091657;28;20197;-61
2024/01/23 02:55:12;;;;;;;1999.90;999.90;;;;;;;;;;5075272;28;20203;-62
2024/01/23 02:57:39;;;;;;;1999.90;999.90;;;;;;;;;;5076618;28;20208;-62
2024/01/23 03:00:09;;;;;;;1999.90;999.90;;;;;;;;;;5094134;28;20191;-62
2024/01/23 03:02:36;;;;;;;1999.90;999.90;;;;;;;;;;5094009;28;20191;-61
2024/01/23 03:05:03;;;;;;;1999.90;999.90;;;;;;;;;;5093149;28;20218;-63
2024/01/23 03:07:31;;;;;;;1999.90;999.90;;;;;;;;;;5075811;28;20214;-65
2024/01/23 03:09:58;;;;;;;1999.90;999.90;;;;;;;;;;5075900;28;20624;-61
2024/01/23 03:12:26;;;;;;;1999.90;999.90;;;;;;;;;;5093693;28;20190;-62
2024/01/23 03:14:54;;;;;;;1999.90;999.90;;;;;;;;;;5092134;28;20194;-61
2024/01/23 03:17:23;;;;;;;1999.90;999.90;;;;;;;;;;5074049;28;20210;-61
2024/01/23 03:19:50;;;;;;;1999.90;999.90;;;;;;;;;;5092634;28;20175;-64
2024/01/23 03:22:17;;;;;;;1999.90;999.90;;;;;;;;;;5094354;28;20202;-65
2024/01/23 03:24:45;;;;;;;1999.90;999.90;;;;;;;;;;5072863;28;20219;-61
2024/01/23 03:27:12;;;;;;;1999.90;999.90;;;;;;;;;;5091809;28;20201;-64
2024/01/23 03:29:40;;;;;;;1999.90;999.90;;;;;;;;;;5075958;28;20210;-61
2024/01/23 03:32:08;;;;;;;1999.90;999.90;;;;;;;;;;5091690;28;20206;-62
2024/01/23 03:34:37;;;;;;;1999.90;999.90;;;;;;;;;;5090912;28;20191;-62
2024/01/23 03:37:05;;;;;;;1999.90;999.90;;;;;;;;;;5089749;28;20201;-62
2024/01/23 03:39:32;;;;;;;1999.90;999.90;;;;;;;;;;5092603;28;20200;-66
2024/01/23 03:42:00;;;;;;;1999.90;999.90;;;;;;;;;;5091670;28;20195;-61
2024/01/23 03:44:27;;;;;;;1999.90;999.90;;;;;;;;;;5091265;28;20219;-61
2024/01/23 03:46:55;;;;;;;1999.90;999.90;;;;;;;;;;5090659;28;20190;-64
2024/01/23 03:49:23;;;;;;;1999.90;999.90;;;;;;;;;;5093605;28;20254;-61
2024/01/23 03:51:52;;;;;;;1999.90;999.90;;;;;;;;;;5091724;28;20244;-65
2024/01/23 03:54:19;;;;;;;1999.90;999.90;;;;;;;;;;5090538;28;20189;-61
2024/01/23 03:56:46;;;;;;;1999.90;999.90;;;;;;;;;;5091541;28;20194;-70
2024/01/23 03:59:14;;;;;;;1999.90;999.90;;;;;;;;;;5073447;28;20195;-61
2024/01/23 04:01:41;;;;;;;1999.90;999.90;;;;;;;;;;5092505;28;20661;-64
2024/01/23 04:04:08;;;;;;;1999.90;999.90;;;;;;;;;;5095685;28;20191;-62
2024/01/23 04:06:36;;;;;;;1999.90;999.90;;;;;;;;;;5100044;28;20194;-68
2024/01/23 04:09:04;;;;;;;1999.90;999.90;;;;;;;;;;5099873;28;20226;-62
2024/01/23 04:11:32;;;;;;;1999.90;999.90;;;;;;;;;;5097888;28;20270;-61
2024/01/23 04:13:59;;;;;;;1999.90;999.90;;;;;;;;;;5082713;28;20258;-62
2024/01/23 04:16:26;;;;;;;1999.90;999.90;;;;;;;;;;5099417;28;20662;-67
2024/01/23 04:18:54;;;;;;;1999.90;999.90;;;;;;;;;;5100539;28;20176;-63
2024/01/23 04:21:23;;;;;;;1999.90;999.90;;;;;;;;;;5099744;28;20182;-66
2024/01/23 04:23:50;;;;;;;1999.90;999.90;;;;;;;;;;5099572;28;20167;-61
2024/01/23 04:26:20;;;;;;;1999.90;999.90;;;;;;;;;;5098753;28;20206;-68
2024/01/23 04:28:48;;;;;;;1999.90;999.90;;;;;;;;;;5099580;28;20171;-61
2024/01/23 04:31:16;;;;;;;1999.90;999.90;;;;;;;;;;5099115;28;20225;-63
2024/01/23 04:33:45;;;;;;;1999.90;999.90;;;;;;;;;;5098829;28;20201;-69
2024/01/23 04:36:12;;;;;;;1999.90;999.90;;;;;;;;;;5098991;28;20180;-61
2024/01/23 04:38:40;;;;;;;1999.90;999.90;;;;;;;;;;5098192;28;20214;-62
2024/01/23 04:41:07;;;;;;;1999.90;999.90;;;;;;;;;;5098083;28;20190;-61
2024/01/23 04:43:37;;;;;;;1999.90;999.90;;;;;;;;;;5097822;28;20190;-65
2024/01/23 04:46:05;;;;;;;1999.90;999.90;;;;;;;;;;5079515;28;20214;-62
2024/01/23 04:48:32;;;;;;;1999.90;999.90;;;;;;;;;;5097142;28;20188;-60
2024/01/23 04:50:59;;;;;;;1999.90;999.90;;;;;;;;;;5096514;28;20183;-61
2024/01/23 04:53:29;;;;;;;1999.90;999.90;;;;;;;;;;5099438;28;20159;-65
2024/01/23 04:55:56;;;;;;;1999.90;999.90;;;;;;;;;;5099156;28;20170;-67
2024/01/23 04:58:24;;;;;;;1999.90;999.90;;;;;;;;;;5099207;28;20181;-61
2024/01/23 05:00:52;;;;;;;1999.90;999.90;;;;;;;;;;5081635;28;20189;-61
2024/01/23 05:03:19;;;;;;;1999.90;999.90;;;;;;;;;;5098419;28;20182;-63
2024/01/23 05:05:47;;;;;;;1999.90;999.90;;;;;;;;;;5097655;28;20233;-69
2024/01/23 05:08:15;;;;;;;1999.90;999.90;;;;;;;;;;5077250;28;20228;-62
2024/01/23 05:10:45;;;;;;;1999.90;999.90;;;;;;;;;;5098442;28;20254;-61
2024/01/23 05:13:12;;;;;;;1999.90;999.90;;;;;;;;;;5080895;28;20179;-66
2024/01/23 05:15:41;;;;;;;1999.90;999.90;;;;;;;;;;5098656;28;20202;-61
2024/01/23 05:18:10;;;;;;;1999.90;999.90;;;;;;;;;;5098600;28;20234;-61
2024/01/23 05:20:38;;;;;;;1999.90;999.90;;;;;;;;;;5098655;28;20173;-62
2024/01/23 05:23:05;;;;;;;1999.90;999.90;;;;;;;;;;5098103;28;20185;-63
2024/01/23 05:25:33;;;;;;;1999.90;999.90;;;;;;;;;;5098129;28;20219;-61
2024/01/23 05:28:00;;;;;;;1999.90;999.90;;;;;;;;;;5095057;28;20249;-70
2024/01/23 05:30:28;;;;;;;1999.90;999.90;;;;;;;;;;5098062;28;20173;-67
2024/01/23 05:32:55;;;;;;;1999.90;999.90;;;;;;;;;;5097876;28;20182;-69
2024/01/23 05:35:24;;;;;;;1999.90;999.90;;;;;;;;;;5097996;28;20210;-67
2024/01/23 05:37:51;;;;;;;1999.90;999.90;;;;;;;;;;5097904;28;20246;-67
2024/01/23 05:40:18;;;;;;;1999.90;999.90;;;;;;;;;;5097716;28;20184;-62
2024/01/23 05:42:46;;;;;;;1999.90;999.90;;;;;;;;;;5097727;28;20195;-61
2024/01/23 05:45:13;;;;;;;1999.90;999.90;;;;;;;;;;5097422;28;20289;-62
2024/01/23 05:47:41;;;;;;;1999.90;999.90;;;;;;;;;;5097176;28;20212;-67
2024/01/23 05:50:08;;;;;;;1999.90;999.90;;;;;;;;;;5097187;28;20168;-61
2024/01/23 05:52:37;;;;;;;1999.90;999.90;;;;;;;;;;5095856;28;20204;-63
2024/01/23 05:55:04;;;;;;;1999.90;999.90;;;;;;;;;;5094506;28;20188;-64
2024/01/23 05:57:32;;;;;;;1999.90;999.90;;;;;;;;;;5094687;28;20194;-61
2024/01/23 06:00:03;;;;;;;1999.90;999.90;;;;;;;;;;5093410;28;20203;-61
2024/01/23 06:02:31;;;;;;;1999.90;999.90;;;;;;;;;;5076048;28;20180;-61
2024/01/23 06:04:58;;;;;;;1999.90;999.90;;;;;;;;;;5097560;28;20221;-61
2024/01/23 06:07:26;;;;;;;1999.90;999.90;;;;;;;;;;5076327;28;20222;-61
2024/01/23 06:09:55;;;;;;;1999.90;999.90;;;;;;;;;;5077459;28;20258;-64
2024/01/23 06:12:22;;;;;;;1999.90;999.90;;;;;;;;;;5077128;28;20193;-63
2024/01/23 06:14:49;;;;;;;1999.90;999.90;;;;;;;;;;5076932;28;20221;-61
2024/01/23 06:17:17;;;;;;;1999.90;999.90;;;;;;;;;;5076371;28;20185;-61
2024/01/23 06:19:44;;;;;;;1999.90;999.90;;;;;;;;;;5077164;28;20201;-64
2024/01/23 06:22:11;;;;;;;1999.90;999.90;;;;;;;;;;5077228;28;20221;-65
2024/01/23 06:24:38;;;;;;;1999.90;999.90;;;;;;;;;;5075930;28;20184;-61
2024/01/23 06:27:07;;;;;;;1999.90;999.90;;;;;;;;;;5076755;28;20229;-64
2024/01/23 06:29:36;;;;;;;1999.90;999.90;;;;;;;;;;5076737;28;20191;-65
2024/01/23 06:32:03;;;;;;;1999.90;999.90;;;;;;;;;;5077242;28;20183;-66
2024/01/23 06:34:30;;;;;;;1999.90;999.90;;;;;;;;;;5076713;28;20229;-67
2024/01/23 06:36:58;;;;;;;1999.90;999.90;;;;;;;;;;5076437;28;20266;-61
2024/01/23 06:39:25;;;;;;;1999.90;999.90;;;;;;;;;;5077039;28;20201;-61
2024/01/23 06:41:52;;;;;;;1999.90;999.90;;;;;;;;;;5076729;28;20253;-61
2024/01/23 06:44:21;;;;;;;1999.90;999.90;;;;;;;;;;5076578;28;20208;-65
2024/01/23 06:46:48;;;;;;;1999.90;999.90;;;;;;;;;;5076092;28;20209;-65
2024/01/23 06:49:15;;;;;;;1999.90;999.90;;;;;;;;;;5076797;28;20194;-65
2024/01/23 06:51:43;;;;;;;1999.90;999.90;;;;;;;;;;5076869;28;20208;-64
2024/01/23 06:54:10;;;;;;;1999.90;999.90;;;;;;;;;;5076762;28;20189;-70
2024/01/23 06:56:37;;;;;;;1999.90;999.90;;;;;;;;;;5076710;28;20247;-64
2024/01/23 06:59:06;;;;;;;1999.90;999.90;;;;;;;;;;5076384;28;20202;-62
2024/01/23 07:01:35;;;;;;;1999.90;999.90;;;;;;;;;;5076123;28;20173;-63
2024/01/23 07:04:02;;;;;;;1999.90;999.90;;;;;;;;;;5076361;28;20190;-61
2024/01/23 07:06:30;;;;;;;1999.90;999.90;;;;;;;;;;5074870;28;20273;-66
2024/01/23 07:08:57;;;;;;;1999.90;999.90;;;;;;;;;;5075842;28;20252;-64
2024/01/23 07:11:25;;;;;;;1999.90;999.90;;;;;;;;;;5074836;28;20204;-61
2024/01/23 07:13:52;;;;;;;1999.90;999.90;;;;;;;;;;5074999;28;20173;-60
2024/01/23 07:16:20;;;;;;;1999.90;999.90;;;;;;;;;;5074729;28;20185;-65
2024/01/23 07:18:49;;;;;;;1999.90;999.90;;;;;;;;;;5075599;28;20183;-62
2024/01/23 07:21:16;;;;;;;1999.90;999.90;;;;;;;;;;5076193;28;20185;-62
2024/01/23 07:23:44;;;;;;;1999.90;999.90;;;;;;;;;;5076065;28;20426;-62
2024/01/23 07:26:12;;;;;;;1999.90;999.90;;;;;;;;;;5073623;28;20250;-61
2024/01/23 07:28:39;;;;;;;1999.90;999.90;;;;;;;;;;5075479;28;20249;-68
2024/01/23 07:31:07;;;;;;;1999.90;999.90;;;;;;;;;;5075288;28;20194;-62
2024/01/23 07:33:34;;;;;;;1999.90;999.90;;;;;;;;;;5075311;28;20200;-62
2024/01/23 07:36:03;;;;;;;1999.90;999.90;;;;;;;;;;5077311;28;20219;-61
2024/01/23 07:38:30;;;;;;;1999.90;999.90;;;;;;;;;;5078743;28;20189;-62
2024/01/23 07:40:58;;;;;;;1999.90;999.90;;;;;;;;;;5062211;28;20225;-61
2024/01/23 07:43:25;;;;;;;1999.90;999.90;;;;;;;;;;5078976;28;20199;-64
2024/01/23 07:45:52;;;;;;;1999.90;999.90;;;;;;;;;;5079290;28;20275;-62
2024/01/23 07:48:20;;;;;;;1999.90;999.90;;;;;;;;;;5079401;28;20213;-61
2024/01/23 07:50:47;;;;;;;1999.90;999.90;;;;;;;;;;5078172;28;20250;-62
2024/01/23 07:53:16;;;;;;;1999.90;999.90;;;;;;;;;;5078928;28;20185;-61
2024/01/23 07:55:43;;;;;;;1999.90;999.90;;;;;;;;;;5079314;28;20169;-63
2024/01/23 07:58:12;;;;;;;1999.90;999.90;;;;;;;;;;5079399;28;20199;-62
2024/01/23 08:00:40;;;;;;;1999.90;999.90;;;;;;;;;;5079044;28;20178;-61
2024/01/23 08:03:07;;;;;;;1999.90;999.90;;;;;;;;;;5079578;28;20195;-62
2024/01/23 08:05:35;;;;;;;1999.90;999.90;;;;;;;;;;5078283;28;20210;-63
2024/01/23 08:08:02;;;;;;;1999.90;999.90;;;;;;;;;;5077236;28;20229;-62
2024/01/23 08:10:31;;;;;;;1999.90;999.90;;;;;;;;;;5078556;28;20192;-60
2024/01/23 08:12:58;;;;;;;1999.90;999.90;;;;;;;;;;5080101;28;20655;-63
2024/01/23 08:15:25;;;;;;;1999.90;999.90;;;;;;;;;;5062962;28;20257;-62
2024/01/23 08:17:53;;;;;;;1999.90;999.90;;;;;;;;;;5078576;28;20196;-62
2024/01/23 08:20:21;;;;;;;1999.90;999.90;;;;;;;;;;5079166;28;20180;-66
2024/01/23 08:22:48;;;;;;;1999.90;999.90;;;;;;;;;;5078596;28;20190;-64
2024/01/23 08:25:16;;;;;;;1999.90;999.90;;;;;;;;;;5077508;28;20205;-62
2024/01/23 08:27:44;;;;;;;1999.90;999.90;;;;;;;;;;5078854;28;20198;-62
2024/01/23 08:30:12;;;;;;;1999.90;999.90;;;;;;;;;;5078825;28;20241;-61
2024/01/23 08:32:40;;;;;;;1999.90;999.90;;;;;;;;;;5078119;28;20200;-62
2024/01/23 08:35:07;;;;;;;1999.90;999.90;;;;;;;;;;5078671;28;20187;-68
2024/01/23 08:37:34;;;;;;;1999.90;999.90;;;;;;;;;;5075993;28;20205;-61
2024/01/23 08:40:02;;;;;;;1999.90;999.90;;;;;;;;;;5077875;28;20182;-62
2024/01/23 08:42:29;;;;;;;1999.90;999.90;;;;;;;;;;5073374;28;20204;-61
2024/01/23 08:44:57;;;;;;;1999.90;999.90;;;;;;;;;;5078461;28;20202;-62
2024/01/23 08:47:25;;;;;;;1999.90;999.90;;;;;;;;;;5075757;28;20229;-61
2024/01/23 08:49:52;;;;;;;1999.90;999.90;;;;;;;;;;5078959;28;20175;-62
2024/01/23 08:52:19;;;;;;;1999.90;999.90;;;;;;;;;;5078822;28;20243;-61
2024/01/23 08:54:46;;;;;;;1999.90;999.90;;;;;;;;;;5078887;28;20267;-72
2024/01/23 08:57:16;;;;;;;1999.90;999.90;;;;;;;;;;5077266;28;20623;-62
2024/01/23 08:59:44;;;;;;;1999.90;999.90;;;;;;;;;;5078969;28;20158;-61
2024/01/23 09:02:13;;;;;;;1999.90;999.90;;;;;;;;;;5077860;28;20198;-62
2024/01/23 09:04:40;;;;;;;1999.90;999.90;;;;;;;;;;5077116;28;20203;-62
2024/01/23 09:07:07;;;;;;;1999.90;999.90;;;;;;;;;;5075654;28;20224;-62
2024/01/23 09:09:35;;;;;;;1999.90;999.90;;;;;;;;;;5058042;28;20190;-62
2024/01/23 09:12:02;;;;;;;1999.90;999.90;;;;;;;;;;5076233;28;20226;-60
2024/01/23 09:14:29;;;;;;;1999.90;999.90;;;;;;;;;;5075309;28;20258;-62
2024/01/23 09:16:57;;;;;;;1999.90;999.90;;;;;;;;;;5076845;28;20316;-62
2024/01/23 09:19:25;;;;;;;1999.90;999.90;;;;;;;;;;5075124;28;20230;-61
2024/01/23 09:21:53;;;;;;;1999.90;999.90;;;;;;;;;;5074344;28;20221;-62
2024/01/23 09:24:20;;;;;;;1999.90;999.90;;;;;;;;;;5075288;28;20179;-63
2024/01/23 09:26:47;;;;;;;1999.90;999.90;;;;;;;;;;5075130;28;20227;-64
2024/01/23 09:29:15;;;;;;;1999.90;999.90;;;;;;;;;;5076806;28;20194;-63
2024/01/23 09:31:45;;;;;;;1999.90;999.90;;;;;;;;;;5074162;28;20209;-61
2024/01/23 09:34:13;;;;;;;1999.90;999.90;;;;;;;;;;5076092;28;20235;-61
2024/01/23 09:36:42;;;;;;;1999.90;999.90;;;;;;;;;;5074636;28;20185;-68
2024/01/23 09:39:13;;;;;;;1999.90;999.90;;;;;;;;;;5076052;28;20254;-68
2024/01/23 09:41:45;;;;;;;1999.90;999.90;;;;;;;;;;5076209;28;20180;-61
2024/01/23 09:44:12;;;;;;;1999.90;999.90;;;;;;;;;;5074886;28;20199;-62
2024/01/23 09:46:40;;;;;;;1999.90;999.90;;;;;;;;;;5073992;28;20222;-65
2024/01/23 09:49:08;;;;;;;1999.90;999.90;;;;;;;;;;5073668;28;20222;-62
2024/01/23 09:51:36;;;;;;;1999.90;999.90;;;;;;;;;;5071541;28;20352;-61
2024/01/23 09:54:04;;;;;;;1999.90;999.90;;;;;;;;;;5072318;28;20202;-62
2024/01/23 09:56:32;;;;;;;1999.90;999.90;;;;;;;;;;5073702;28;20225;-62
2024/01/23 09:59:00;;;;;;;1999.90;999.90;;;;;;;;;;5073717;28;20200;-71
2024/01/23 10:01:28;;;;;;;1999.90;999.90;;;;;;;;;;5074674;28;20190;-63
2024/01/23 10:03:58;;;;;;;1999.90;999.90;;;;;;;;;;5071907;28;20191;-78
2024/01/23 10:06:25;;;;;;;1999.90;999.90;;;;;;;;;;5074519;28;20216;-71
2024/01/23 10:08:53;;;;;;;1999.90;999.90;;;;;;;;;;5074002;28;20211;-67
2024/01/23 10:11:22;;;;;;;1999.90;999.90;;;;;;;;;;5072776;28;20197;-64
2024/01/23 10:13:49;;;;;;;1999.90;999.90;;;;;;;;;;5071537;28;20212;-68
2024/01/23 10:16:17;;;;;;;1999.90;999.90;;;;;;;;;;5071427;28;20185;-73
2024/01/23 10:18:48;;;;;;;1999.90;999.90;;;;;;;;;;5073529;28;20184;-66
2024/01/23 10:21:17;;;;;;;1999.90;999.90;;;;;;;;;;5071591;28;20178;-62
2024/01/23 10:23:44;;;;;;;1999.90;999.90;;;;;;;;;;5071418;28;20185;-64
2024/01/23 10:26:11;;;;;;;1999.90;999.90;;;;;;;;;;5067633;28;20250;-63
2024/01/23 10:28:44;;;;;;;1999.90;999.90;;;;;;;;;;5062287;28;20605;-83
2024/01/23 10:31:12;;;;;;;1999.90;999.90;;;;;;;;;;5060512;28;20183;-81
2024/01/23 10:33:38;;;;;;;1999.90;999.90;;;;;;;;;;5060179;28;20195;-74
2024/01/23 10:36:07;;;;;;;1999.90;999.90;;;;;;;;;;5059189;28;20724;-85
2024/01/23 10:38:36;;;;;;;1999.90;999.90;;;;;;;;;;5058323;28;20191;-82
2024/01/23 10:41:04;;;;;;;1999.90;999.90;;;;;;;;;;5056494;28;20195;-66
2024/01/23 10:43:32;;;;;;;1999.90;999.90;;;;;;;;;;5055955;28;20196;-82
2024/01/23 10:46:02;;;;;;;1999.90;999.90;;;;;;;;;;5057340;28;20191;-75
2024/01/23 10:48:30;;;;;;;1999.90;999.90;;;;;;;;;;5056852;28;20191;-77
2024/01/23 10:50:59;;;;;;;1999.90;999.90;;;;;;;;;;5057373;28;20736;-80
2024/01/23 10:53:31;;;;;;;1999.90;999.90;;;;;;;;;;5055049;28;20207;-72
2024/01/23 10:55:59;;;;;;;1999.90;999.90;;;;;;;;;;5055429;28;20184;-76
2024/01/23 10:58:30;;;;;;;1999.90;999.90;;;;;;;;;;5057742;28;20278;-79
2024/01/23 11:00:58;;;;;;;1999.90;999.90;;;;;;;;;;5055005;28;20199;-77
2024/01/23 11:03:27;;;;;;;1999.90;999.90;;;;;;;;;;5056192;28;20191;-86
2024/01/23 11:05:57;;;;;;;1999.90;999.90;;;;;;;;;;5057804;28;20279;-89
2024/01/23 11:08:27;;;;;;;1999.90;999.90;;;;;;;;;;5057878;28;20231;-76
2024/01/23 11:10:57;;;;;;;1999.90;999.90;;;;;;;;;;5061843;28;20190;-80
2024/01/23 11:13:28;;;;;;;1999.90;999.90;;;;;;;;;;5067654;28;20196;-72
2024/01/23 11:15:55;;;;;;;1999.90;999.90;;;;;;;;;;5066458;28;20570;-75
2024/01/23 11:18:23;;;;;;;1999.90;999.90;;;;;;;;;;5068232;28;20207;-71
2024/01/23 11:21:05;;;;;;;1999.90;999.90;;;;;;;;;;5073401;28;20197;-71
2024/01/23 11:23:34;;;;;;;1999.90;999.90;;;;;;;;;;5070921;28;20190;-71
2024/01/23 11:26:03;;;;;;;1999.90;999.90;;;;;;;;;;5065657;28;20664;-63
2024/01/23 11:28:33;;;;;;;1999.90;999.90;;;;;;;;;;5066578;28;20207;-62
2024/01/23 11:31:10;;;;;;;1999.90;999.90;;;;;;;;;;5068569;28;20249;-65
2024/01/23 11:33:37;;;;;;;1999.90;999.90;;;;;;;;;;5070287;28;20206;-74
2024/01/23 11:36:11;;;;;;;1999.90;999.90;;;;;;;;;;5068624;28;20188;-81
2024/01/23 11:38:42;;;;;;;1999.90;999.90;;;;;;;;;;5069842;28;20186;-62
2024/01/23 11:41:14;;;;;;;1999.90;999.90;;;;;;;;;;5070761;28;20679;-70
2024/01/23 11:43:41;;;;;;;1999.90;999.90;;;;;;;;;;5068383;28;20177;-65
2024/01/23 11:46:12;;;;;;;1999.90;999.90;;;;;;;;;;5071269;28;20200;-71
2024/01/23 11:48:40;;;;;;;1999.90;999.90;;;;;;;;;;5071714;28;20555;-63
2024/01/23 11:51:08;;;;;;;1999.90;999.90;;;;;;;;;;5071753;28;20257;-68
2024/01/23 11:53:35;;;;;;;1999.90;999.90;;;;;;;;;;5070215;28;20224;-63
2024/01/23 11:56:05;;;;;;;1999.90;999.90;;;;;;;;;;5067563;28;20203;-62
2024/01/23 11:58:32;;;;;;;1999.90;999.90;;;;;;;;;;5068867;28;20203;-62
2024/01/23 12:01:00;;;;;;;1999.90;999.90;;;;;;;;;;5064266;28;20733;-78
2024/01/23 12:03:27;;;;;;;1999.90;999.90;;;;;;;;;;5063437;28;20292;-71
2024/01/23 12:05:54;;;;;;;1999.90;999.90;;;;;;;;;;5061307;28;20190;-76
2024/01/23 12:08:23;;;;;;;1999.90;999.90;;;;;;;;;;5060050;28;20233;-84
2024/01/23 12:10:51;;;;;;;1999.90;999.90;;;;;;;;;;5058344;28;20252;-69
2024/01/23 12:13:22;;;;;;;1999.90;999.90;;;;;;;;;;5061326;28;20204;-74
2024/01/23 12:15:50;;;;;;;1999.90;999.90;;;;;;;;;;5061923;28;20256;-85
2024/01/23 12:18:19;;;;;;;1999.90;999.90;;;;;;;;;;5060664;28;20219;-87
2024/01/23 12:20:48;;;;;;;1999.90;999.90;;;;;;;;;;5061646;28;20728;-77
2024/01/23 12:23:16;;;;;;;1999.90;999.90;;;;;;;;;;5059778;28;20199;-80
2024/01/23 12:25:43;;;;;;;1999.90;999.90;;;;;;;;;;5061053;28;20278;-86
2024/01/23 12:28:11;;;;;;;1999.90;999.90;;;;;;;;;;5059128;28;20219;-81
2024/01/23 12:30:39;;;;;;;1999.90;999.90;;;;;;;;;;5059257;28;20219;-70
2024/01/23 12:33:07;;;;;;;1999.90;999.90;;;;;;;;;;5058611;28;20591;-81
2024/01/23 12:35:37;;;;;;;1999.90;999.90;;;;;;;;;;5059584;28;20657;-71
2024/01/23 12:38:05;;;;;;;1999.90;999.90;;;;;;;;;;5060699;28;20195;-75
2024/01/23 12:40:32;;;;;;;1999.90;999.90;;;;;;;;;;5059157;28;20205;-78
2024/01/23 12:43:00;;;;;;;1999.90;999.90;;;;;;;;;;5058956;28;20636;-66
2024/01/23 12:45:27;;;;;;;1999.90;999.90;;;;;;;;;;5060341;28;20194;-76
2024/01/23 12:47:56;;;;;;;1999.90;999.90;;;;;;;;;;5058037;28;20216;-67
2024/01/23 12:50:25;;;;;;;1999.90;999.90;;;;;;;;;;5059328;28;20197;-69
2024/01/23 12:52:53;;;;;;;1999.90;999.90;;;;;;;;;;5058906;28;20237;-77
2024/01/23 12:55:21;;;;;;;1999.90;999.90;;;;;;;;;;5059185;28;20193;-75
2024/01/23 12:57:48;;;;;;;1999.90;999.90;;;;;;;;;;5057573;28;20201;-62
2024/01/23 13:00:17;;;;;;;1999.90;999.90;;;;;;;;;;5058573;28;20824;-80
2024/01/23 13:02:44;;;;;;;1999.90;999.90;;;;;;;;;;5057708;28;20190;-78
2024/01/23 13:05:17;;;;;;;1999.90;999.90;;;;;;;;;;5054979;28;20215;-77
2024/01/23 13:07:45;;;;;;;1999.90;999.90;;;;;;;;;;5059793;28;20239;-76
2024/01/23 13:10:14;;;;;;;1999.90;999.90;;;;;;;;;;5065985;28;20206;-67
2024/01/23 13:12:43;;;;;;;1999.90;999.90;;;;;;;;;;5063136;28;20293;-79
2024/01/23 13:15:11;;;;;;;1999.90;999.90;;;;;;;;;;5062665;28;20182;-67
2024/01/23 13:17:38;;;;;;;1999.90;999.90;;;;;;;;;;5059706;28;20200;-62
2024/01/23 13:20:10;;;;;;;1999.90;999.90;;;;;;;;;;5057636;28;20212;-74
2024/01/23 13:22:44;;;;;;;1999.90;999.90;;;;;;;;;;5058350;28;20366;-71
2024/01/23 13:25:17;;;;;;;1999.90;999.90;;;;;;;;;;5057809;28;20245;-66
2024/01/23 13:27:44;;;;;;;1999.90;999.90;;;;;;;;;;5056895;28;20217;-65
2024/01/23 13:30:15;;;;;;;1999.90;999.90;;;;;;;;;;5062058;28;20225;-72
2024/01/23 13:32:43;;;;;;;1999.90;999.90;;;;;;;;;;5058973;28;20189;-62
2024/01/23 13:35:11;;;;;;;1999.90;999.90;;;;;;;;;;5064022;28;20200;-60
2024/01/23 13:37:39;;;;;;;1999.90;999.90;;;;;;;;;;5060415;28;20201;-64
2024/01/23 13:40:10;;;;;;;1999.90;999.90;;;;;;;;;;5060395;28;20195;-67
2024/01/23 13:42:38;;;;;;;1999.90;999.90;;;;;;;;;;5060613;28;20187;-67
2024/01/23 13:45:06;;;;;;;1999.90;999.90;;;;;;;;;;5062506;28;20225;-61